createdAt,value
2022-11-18T00:00:25.449Z,3.12
2022-11-18T00:05:27.941Z,3.08
2022-11-18T00:10:30.599Z,3.12
2022-11-18T00:15:33.836Z,3.09
2022-11-18T00:20:36.712Z,3.06
2022-11-18T00:25:39.258Z,2.93
2022-11-18T00:30:41.936Z,2.97
2022-11-18T00:35:47.203Z,2.93
2022-11-18T00:40:50.039Z,2.93
2022-11-18T00:45:52.883Z,2.85
2022-11-18T00:50:58.149Z,2.86
2022-11-18T00:56:00.476Z,2.79
2022-11-18T01:01:03.074Z,2.82
2022-11-18T01:06:05.659Z,2.77
2022-11-18T01:11:08.293Z,2.78
2022-11-18T01:16:11.015Z,2.85
2022-11-18T01:21:13.749Z,2.79
2022-11-18T01:26:16.488Z,2.74
2022-11-18T01:31:19.122Z,2.73
2022-11-18T01:36:21.827Z,2.65
2022-11-18T01:41:24.459Z,2.68
2022-11-18T01:51:29.596Z,2.7
2022-11-18T01:56:32.157Z,2.65
2022-11-18T02:01:35.056Z,2.63
2022-11-18T02:06:37.807Z,2.64
2022-11-18T02:11:40.597Z,2.6
2022-11-18T02:16:43.141Z,2.64
2022-11-18T02:21:50.828Z,2.48
2022-11-18T02:26:54.292Z,2.56
2022-11-18T02:31:56.727Z,2.41
2022-11-18T02:36:59.424Z,2.33
2022-11-18T02:42:01.897Z,2.37
2022-11-18T02:47:04.721Z,2.43
2022-11-18T02:52:07.877Z,2.39
2022-11-18T02:57:10.808Z,2.33
2022-11-18T03:02:14.063Z,2.38
2022-11-18T03:07:16.849Z,2.28
2022-11-18T03:17:22.088Z,2.27
2022-11-18T03:22:24.355Z,2.07
2022-11-18T03:27:26.993Z,2.07
2022-11-18T03:42:35.471Z,1.86
2022-11-18T03:47:37.827Z,1.84
2022-11-18T03:52:40.487Z,1.92
2022-11-18T03:57:43.207Z,1.87
2022-11-18T04:02:46.511Z,1.89
2022-11-18T04:07:49.194Z,1.9
2022-11-18T04:12:52.320Z,1.77
2022-11-18T04:17:55.112Z,1.69
2022-11-18T04:22:57.765Z,1.69
2022-11-18T04:28:00.611Z,1.77
2022-11-18T04:33:03.652Z,1.66
2022-11-18T04:38:06.197Z,1.69
2022-11-18T04:43:11.446Z,1.59
2022-11-18T04:48:13.806Z,1.6
2022-11-18T04:53:16.458Z,1.6
2022-11-18T04:58:19.061Z,1.58
2022-11-18T05:03:21.586Z,1.61
2022-11-18T05:08:24.329Z,1.63
2022-11-18T05:13:26.704Z,1.66
2022-11-18T05:18:29.040Z,1.51
2022-11-18T05:23:31.932Z,1.39
2022-11-18T05:28:34.493Z,1.31
2022-11-18T05:33:37.095Z,1.29
2022-11-18T05:38:39.731Z,1.25
2022-11-18T05:43:42.372Z,1.25
2022-11-18T05:48:44.980Z,1.25
2022-11-18T05:53:47.373Z,1.24
2022-11-18T05:58:50.080Z,1.26
2022-11-18T06:03:52.707Z,1.33
2022-11-18T06:08:56.139Z,1.31
2022-11-18T06:13:58.775Z,1.23
2022-11-18T06:19:01.407Z,1.19
2022-11-18T06:24:04.461Z,1.35
2022-11-18T06:29:07.670Z,1.38
2022-11-18T06:34:10.577Z,1.47
2022-11-18T06:39:12.838Z,1.26
2022-11-18T06:44:15.561Z,1.32
2022-11-18T06:49:18.623Z,1.25
2022-11-18T06:54:20.835Z,1.26
2022-11-18T06:59:24.028Z,1.23
2022-11-18T07:04:28.198Z,1.27
2022-11-18T07:09:30.831Z,1.24
2022-11-18T07:14:34.309Z,1.29
2022-11-18T07:19:36.781Z,1.12
2022-11-18T07:24:38.824Z,1.15
2022-11-18T07:34:44.324Z,1.13
2022-11-18T07:39:47.165Z,1.18
2022-11-18T07:44:50.077Z,1.26
2022-11-18T07:49:52.814Z,1.23
2022-11-18T07:54:55.283Z,1.24
2022-11-18T08:05:00.812Z,1.22
2022-11-18T08:10:03.429Z,1.37
2022-11-18T08:15:06.072Z,1.29
2022-11-18T08:20:08.790Z,1.43
2022-11-18T08:30:16.580Z,1.24
2022-11-18T08:35:19.399Z,1.34
2022-11-18T08:40:21.846Z,1.25
2022-11-18T08:45:24.621Z,1.36
2022-11-18T08:50:27.101Z,1.47
2022-11-18T08:55:32.424Z,1.51
2022-11-18T09:00:34.884Z,1.53
2022-11-18T09:10:40.605Z,1.15
2022-11-18T09:15:43.262Z,1.14
2022-11-18T09:20:46.142Z,1.05
2022-11-18T09:25:48.659Z,1.04
2022-11-18T09:30:51.544Z,1.07
2022-11-18T09:35:53.968Z,0.9
2022-11-18T09:40:56.849Z,1.01
2022-11-18T09:45:59.501Z,1.08
2022-11-18T09:51:04.919Z,0.99
2022-11-18T09:56:07.545Z,0.92
2022-11-18T10:01:10.730Z,1
2022-11-18T10:06:14.162Z,0.93
2022-11-18T10:11:17.033Z,1.04
2022-11-18T10:16:19.581Z,0.86
2022-11-18T10:21:21.962Z,0.84
2022-11-18T10:26:24.753Z,0.83
2022-11-18T10:31:27.447Z,0.81
2022-11-18T10:36:30.308Z,0.75
2022-11-18T10:41:33.211Z,0.91
2022-11-18T10:46:35.898Z,0.97
2022-11-18T10:51:38.408Z,1.01
2022-11-18T10:56:41.907Z,1.17
2022-11-18T11:01:44.529Z,1.23
2022-11-18T11:06:47.259Z,1.02
2022-11-18T11:11:49.853Z,0.94
2022-11-18T11:16:54.977Z,0.8
2022-11-18T11:21:57.718Z,0.85
2022-11-18T11:32:03.404Z,1.32
2022-11-18T11:37:06.541Z,1.35
2022-11-18T11:42:09.129Z,1.4
2022-11-18T11:47:14.668Z,1.61
2022-11-18T11:52:17.393Z,1.53
2022-11-18T11:57:20.167Z,1.6
2022-11-18T12:07:25.426Z,1.49
2022-11-18T12:12:28.070Z,1.25
2022-11-18T12:17:33.218Z,1.47
2022-11-18T12:22:38.003Z,1.66
2022-11-18T12:27:40.838Z,1.78
2022-11-18T12:37:46.208Z,1.64
2022-11-18T12:42:49.037Z,1.97
2022-11-18T12:47:51.869Z,2.07
2022-11-18T12:57:59.977Z,1.56
2022-11-18T13:03:02.796Z,1.59
2022-11-18T13:13:09.079Z,1.58
2022-11-18T13:18:11.854Z,1.75
2022-11-18T13:23:14.547Z,1.99
2022-11-18T13:33:19.372Z,1.69
2022-11-18T13:38:27.609Z,1.58
2022-11-18T13:43:24.747Z,1.59
2022-11-18T13:48:27.476Z,1.47
2022-11-18T13:58:36.695Z,1.38
2022-11-18T14:03:36.332Z,1.47
2022-11-18T14:13:41.438Z,1.65
2022-11-18T14:18:44.186Z,1.52
2022-11-18T14:23:48.243Z,1.44
2022-11-18T14:28:50.802Z,1.12
2022-11-18T14:33:53.700Z,1.15
2022-11-18T14:39:19.694Z,1.14
2022-11-18T14:44:02.089Z,1.15
2022-11-18T14:49:05.473Z,1.07
2022-11-18T14:54:11.453Z,1.1
2022-11-18T14:59:14.984Z,0.96
2022-11-18T15:04:18.673Z,0.87
2022-11-18T15:09:21.553Z,0.93
2022-11-18T15:19:39.743Z,0.95
2022-11-18T15:29:46.243Z,0.85
2022-11-18T15:34:49.762Z,0.79
2022-11-18T15:39:52.736Z,0.7
2022-11-18T15:44:55.882Z,0.7
2022-11-18T15:49:59.074Z,0.75
2022-11-18T15:55:03.221Z,0.73
2022-11-18T16:10:12.178Z,0.71
2022-11-18T16:15:15.030Z,0.69
2022-11-18T16:20:17.620Z,0.71
2022-11-18T16:30:26.902Z,0.69
2022-11-18T16:35:29.953Z,0.67
2022-11-18T16:40:51.401Z,0.6
2022-11-18T16:45:55.298Z,0.61
2022-11-18T16:50:58.669Z,0.56
2022-11-18T16:56:02.050Z,0.46
2022-11-18T17:06:17.196Z,0.57
2022-11-18T17:11:20.347Z,0.58
2022-11-18T17:21:26.789Z,0.53
2022-11-18T17:26:29.954Z,0.55
2022-11-18T17:31:33.256Z,0.54
2022-11-18T17:36:35.849Z,0.43
2022-11-18T17:41:39.057Z,0.47
2022-11-18T17:46:42.259Z,0.53
2022-11-18T17:51:45.577Z,0.49
2022-11-18T17:56:48.792Z,0.5
2022-11-18T18:01:57.513Z,0.46
2022-11-18T18:11:58.930Z,0.36
2022-11-18T18:17:02.130Z,0.44
2022-11-18T18:22:05.725Z,0.48
2022-11-18T18:27:09.158Z,0.36
2022-11-18T18:32:12.216Z,0.39
2022-11-18T18:37:14.714Z,0.51
2022-11-18T18:42:18.276Z,0.49
2022-11-18T18:47:21.612Z,0.47
2022-11-18T18:52:24.734Z,0.54
2022-11-18T18:57:28.216Z,0.48
2022-11-18T19:02:31.499Z,0.6
2022-11-18T19:07:34.915Z,0.48
2022-11-18T19:12:38.218Z,0.36
2022-11-18T19:17:41.632Z,0.43
2022-11-18T19:22:44.715Z,0.46
2022-11-18T19:27:48.168Z,0.41
2022-11-18T19:32:53.848Z,0.36
2022-11-18T19:37:57.115Z,0.47
2022-11-18T19:43:00.201Z,0.42
2022-11-18T19:48:05.729Z,0.39
2022-11-18T19:53:08.990Z,0.36
2022-11-18T19:58:12.081Z,0.33
2022-11-18T20:03:15.366Z,0.27
2022-11-18T20:08:18.868Z,0.23
2022-11-18T20:13:22.153Z,0.22
2022-11-18T20:18:25.218Z,0.22
2022-11-18T20:23:28.529Z,0.12
2022-11-18T20:28:32.090Z,-0.2
2022-11-18T20:33:34.759Z,-0.34
2022-11-18T20:38:38.162Z,-0.32
2022-11-18T20:43:41.396Z,-0.4
2022-11-18T20:48:44.874Z,-0.44
2022-11-18T20:53:48.260Z,-0.58
2022-11-18T20:58:51.688Z,-0.45
2022-11-18T21:03:54.726Z,-0.45
2022-11-18T21:08:58.071Z,-0.53
2022-11-18T21:14:00.772Z,-0.5
2022-11-18T21:19:03.980Z,-0.62
2022-11-18T21:24:07.207Z,-0.59
2022-11-18T21:29:10.559Z,-0.73
2022-11-18T21:34:13.571Z,-0.6
2022-11-18T21:39:16.315Z,-0.5
2022-11-18T21:44:19.441Z,-0.59
2022-11-18T21:49:25.766Z,-0.53
2022-11-18T21:54:29.188Z,-0.46
2022-11-18T21:59:32.478Z,-0.52
2022-11-18T22:04:35.597Z,-0.55
2022-11-18T22:09:39.032Z,-0.48
2022-11-18T22:14:42.587Z,-0.59
2022-11-18T22:19:45.944Z,-0.68
2022-11-18T22:24:49.257Z,-0.83
2022-11-18T22:29:52.858Z,-0.69
2022-11-18T22:34:56.223Z,-0.6
2022-11-18T22:39:59.627Z,-0.69
2022-11-18T22:45:03.058Z,-0.94
2022-11-18T22:50:06.255Z,-0.93
2022-11-18T22:55:09.579Z,-1.05
2022-11-18T23:00:12.885Z,-1.16
2022-11-18T23:05:15.981Z,-1.22
2022-11-18T23:10:19.276Z,-1.24
2022-11-18T23:15:21.839Z,-1.21
2022-11-18T23:20:25.078Z,-1.29
2022-11-18T23:25:28.271Z,-1.41
2022-11-18T23:30:31.562Z,-1.47
2022-11-18T23:35:34.694Z,-1.55
2022-11-18T23:40:37.621Z,-1.58
2022-11-18T23:45:41.155Z,-1.59
2022-11-18T23:50:44.269Z,-1.63
2022-11-18T23:55:50.259Z,-1.7
